Star Hyperion — 3FDK6 — position and weather

sailwx.info

Track history (hours):
 
Tides and Currents Weather Stations Pressure Air Temp Water Temp Dewpoint Dewpoint Depression Visibility Wind Speed Wind Dir Waves Ship Positions

Star Hyperion

Last reported at 2018-Jun-01 10:35 UTC. Time now 2018-Jun-20 15:18 UTC.
Position N 05°04' W 000°16'.
Warning: this ship's position is 19 days out of date.

Length 190 m; draft 6 m.

Type: Cargo ship. MMSI: 356370000.

Date/timePositionNaut miles runAvg speedWind from/ knotsBaromVisibWave heightAir tempDewpointWater temp
2018-Jun-01 10:35N 05°04' W 000°16'212.6
2018-Jun-01 10:26N 05°06' W 000°16'811.9
2018-Jun-01 09:43N 05°14' W 000°19'1 5.3
2018-Jun-01 09:30N 05°15' W 000°19'0 0.4
2018-Jun-01 09:00N 05°15' W 000°19'6 0.7
2018-May-31 23:47N 05°12' W 000°14'7 8.7
2018-May-31 23:00N 05°17' W 000°09'612.7
2018-May-31 22:30N 05°22' W 000°05'612.5
2018-May-31 22:00N 05°26' W 000°01'612.4
2018-May-31 21:31N 05°31' E 000°03'611.2
2018-May-31 21:00N 05°37' E 000°04'3 7.0
2018-May-31 20:31N 05°38' E 000°01'0 0.3
2018-May-31 20:00N 05°38' E 000°00'0 0.0
2018-May-31 19:30N 05°38' E 000°00'0 0.0
2018-May-31 19:00N 05°38' E 000°00'0 0.0
2018-May-31 18:31N 05°38' E 000°00'0 0.0
2018-May-31 18:01N 05°38' E 000°00'0 0.0
2018-May-31 17:31N 05°38' E 000°00'0 0.0
2018-May-31 17:01N 05°38' E 000°00'0 0.0
2018-May-31 16:30N 05°38' E 000°00'0 0.0
2018-May-31 16:00N 05°38' E 000°00'0 0.0
2018-May-31 15:31N 05°38' E 000°00'0 0.0
2018-May-31 15:00N 05°38' E 000°00'0 0.0
2018-May-31 14:30N 05°38' E 000°00'0 0.0
2018-May-31 14:00N 05°38' E 000°00'0 0.0
2018-May-31 13:30N 05°38' E 000°00'0 0.0
2018-May-31 13:01N 05°38' E 000°00'0 0.0
2018-May-31 12:30N 05°38' E 000°00'0 0.0
2018-May-31 12:01N 05°38' E 000°00'0 0.0
2018-May-31 11:31N 05°38' E 000°00'0 0.0
2018-May-31 11:01N 05°38' E 000°00'0 0.0
2018-May-31 10:31N 05°38' E 000°00'0 0.0
2018-May-31 10:01N 05°38' E 000°00'0 0.0
2018-May-31 09:30N 05°38' E 000°00'0 0.0
2018-May-31 09:01N 05°38' E 000°00'0 0.0
2018-May-31 08:31N 05°38' E 000°00'0 0.0
2018-May-31 08:01N 05°38' E 000°00'0 0.0
2018-May-31 07:30N 05°38' E 000°00'0 0.0
2018-May-31 07:01N 05°38' E 000°00'0 0.0
2018-May-31 06:31N 05°38' E 000°00'0 0.0
2018-May-31 06:01N 05°38' E 000°00'0 0.0
2018-May-31 05:31N 05°38' E 000°00'0 0.0
2018-May-31 05:01N 05°38' E 000°00'0 0.0
2018-May-31 04:31N 05°38' E 000°00'0 0.0
2018-May-31 04:01N 05°38' E 000°00'0 0.0
2018-May-31 03:31N 05°38' E 000°00'0 0.0
2018-May-31 03:01N 05°38' E 000°00'0 0.0
2018-May-31 02:31N 05°38' E 000°00'0 0.0
2018-May-31 02:00N 05°38' E 000°00'0 0.0
2018-May-31 01:30N 05°38' E 000°00'0 0.0
2018-May-31 01:01N 05°38' E 000°00'0 0.0
2018-May-31 00:31N 05°38' E 000°00'0 0.0
2018-May-31 00:00N 05°38' E 000°00'0 0.0
2018-May-30 23:31N 05°38' E 000°00'0 0.0
2018-May-30 23:00N 05°38' E 000°00'0 0.0
2018-May-30 22:31N 05°38' E 000°00'0 0.0
2018-May-30 22:01N 05°38' E 000°00'0 0.0
2018-May-30 21:31N 05°38' E 000°00'0 0.0
2018-May-30 21:01N 05°38' E 000°00'0 0.0
2018-May-30 20:30N 05°38' E 000°00'0 0.0
2018-May-30 20:01N 05°38' E 000°00'0 0.0
2018-May-30 19:31N 05°38' E 000°00'0 0.0
2018-May-30 19:01N 05°38' E 000°00'0 0.0
2018-May-30 18:31N 05°38' E 000°00'0 0.0
2018-May-30 18:01N 05°38' E 000°00'0 0.0
2018-May-30 17:31N 05°38' E 000°00'0 0.0
2018-May-30 17:00N 05°38' E 000°00'0 0.0
2018-May-30 16:31N 05°38' E 000°00'0 0.0
2018-May-30 16:01N 05°38' E 000°00'0 0.0
2018-May-30 15:31N 05°38' E 000°00'0 0.0
2018-May-30 15:01N 05°38' E 000°00'0 0.0
2018-May-30 14:31N 05°38' E 000°00'0 0.0
2018-May-30 14:01N 05°38' E 000°00'0 0.0
2018-May-30 13:30N 05°38' E 000°00'0 0.0
2018-May-30 13:01N 05°38' E 000°00'0 0.0
2018-May-30 12:31N 05°38' E 000°00'0 0.0
2018-May-30 12:00N 05°38' E 000°00'0 0.0
2018-May-30 11:31N 05°38' E 000°00'0 0.0
2018-May-30 11:00N 05°38' E 000°00'0 0.0
2018-May-30 10:30N 05°38' E 000°00'0 0.0
2018-May-30 10:01N 05°38' E 000°00'0 0.0
2018-May-30 09:31N 05°38' E 000°00'0 0.0
2018-May-30 09:01N 05°38' E 000°00'0 0.0
2018-May-30 08:30N 05°38' E 000°00'0 0.0
2018-May-30 08:01N 05°38' E 000°00'0 0.0
2018-May-30 07:31N 05°38' E 000°00'0 0.0
2018-May-30 07:00N 05°38' E 000°00'0 0.0
2018-May-30 06:30N 05°38' E 000°00'0 0.0
2018-May-30 06:01N 05°38' E 000°00'0 0.0
2018-May-30 05:30N 05°38' E 000°00'0 0.0
2018-May-30 05:01N 05°38' E 000°00'0 0.0
2018-May-30 04:31N 05°38' E 000°00'0 0.0
2018-May-30 04:00N 05°38' E 000°00'0 0.0
2018-May-30 03:31N 05°38' E 000°00'0 0.0
2018-May-30 03:01N 05°38' E 000°00'0 0.0
2018-May-30 02:31N 05°38' E 000°00'0 0.0
2018-May-30 02:01N 05°38' E 000°00'0 0.0
2018-May-30 01:31N 05°38' E 000°00'0 0.0
2018-May-30 01:00N 05°38' E 000°00'0 0.0
2018-May-30 00:30N 05°38' E 000°00'1 2.3
2018-May-30 00:01N 05°38' E 000°02'3 6.8
2018-May-29 23:31N 05°37' E 000°05'1 1.5
2018-May-29 23:00N 05°37' E 000°05'1 1.5
2018-May-29 22:31N 05°37' E 000°04'2 4.1
2018-May-29 22:00N 05°38' E 000°02'2 2.9
2018-May-29 21:28N 05°36' E 000°01'4 9.2
2018-May-29 21:00N 05°33' W 000°02'611.9
2018-May-29 20:30N 05°29' W 000°06'612.6
2018-May-29 20:01N 05°24' W 000°10'713.1
2018-May-29 19:31N 05°20' W 000°15'713.0
2018-May-29 19:00N 05°16' W 000°20'  
Track history (hours):
 
Tides and Currents Weather Stations Pressure Air Temp Water Temp Dewpoint Dewpoint Depression Visibility Wind Speed Wind Dir Waves Ship Positions

Star Hyperion

Last reported at 2018-Jun-01 10:35 UTC. Time now 2018-Jun-20 15:18 UTC.
Position N 05°04' W 000°16'.
Warning: this ship's position is 19 days out of date.

Length 190 m; draft 6 m.

Type: Cargo ship. MMSI: 356370000.

Date/timePositionNaut miles runAvg speedWind from/ knotsBaromVisibWave heightAir tempDewpointWater temp
2018-Jun-01 10:35N 05°04' W 000°16'212.6
2018-Jun-01 10:26N 05°06' W 000°16'811.9
2018-Jun-01 09:43N 05°14' W 000°19'1 5.3
2018-Jun-01 09:30N 05°15' W 000°19'0 0.4
2018-Jun-01 09:00N 05°15' W 000°19'6 0.7
2018-May-31 23:47N 05°12' W 000°14'7 8.7
2018-May-31 23:00N 05°17' W 000°09'612.7
2018-May-31 22:30N 05°22' W 000°05'612.5
2018-May-31 22:00N 05°26' W 000°01'612.4
2018-May-31 21:31N 05°31' E 000°03'611.2
2018-May-31 21:00N 05°37' E 000°04'3 7.0
2018-May-31 20:31N 05°38' E 000°01'0 0.3
2018-May-31 20:00N 05°38' E 000°00'0 0.0
2018-May-31 19:30N 05°38' E 000°00'0 0.0
2018-May-31 19:00N 05°38' E 000°00'0 0.0
2018-May-31 18:31N 05°38' E 000°00'0 0.0
2018-May-31 18:01N 05°38' E 000°00'0 0.0
2018-May-31 17:31N 05°38' E 000°00'0 0.0
2018-May-31 17:01N 05°38' E 000°00'0 0.0
2018-May-31 16:30N 05°38' E 000°00'0 0.0
2018-May-31 16:00N 05°38' E 000°00'0 0.0
2018-May-31 15:31N 05°38' E 000°00'0 0.0
2018-May-31 15:00N 05°38' E 000°00'0 0.0
2018-May-31 14:30N 05°38' E 000°00'0 0.0
2018-May-31 14:00N 05°38' E 000°00'0 0.0
2018-May-31 13:30N 05°38' E 000°00'0 0.0
2018-May-31 13:01N 05°38' E 000°00'0 0.0
2018-May-31 12:30N 05°38' E 000°00'0 0.0
2018-May-31 12:01N 05°38' E 000°00'0 0.0
2018-May-31 11:31N 05°38' E 000°00'0 0.0
2018-May-31 11:01N 05°38' E 000°00'0 0.0
2018-May-31 10:31N 05°38' E 000°00'0 0.0
2018-May-31 10:01N 05°38' E 000°00'0 0.0
2018-May-31 09:30N 05°38' E 000°00'0 0.0
2018-May-31 09:01N 05°38' E 000°00'0 0.0
2018-May-31 08:31N 05°38' E 000°00'0 0.0
2018-May-31 08:01N 05°38' E 000°00'0 0.0
2018-May-31 07:30N 05°38' E 000°00'0 0.0
2018-May-31 07:01N 05°38' E 000°00'0 0.0
2018-May-31 06:31N 05°38' E 000°00'0 0.0
2018-May-31 06:01N 05°38' E 000°00'0 0.0
2018-May-31 05:31N 05°38' E 000°00'0 0.0
2018-May-31 05:01N 05°38' E 000°00'0 0.0
2018-May-31 04:31N 05°38' E 000°00'0 0.0
2018-May-31 04:01N 05°38' E 000°00'0 0.0
2018-May-31 03:31N 05°38' E 000°00'0 0.0
2018-May-31 03:01N 05°38' E 000°00'0 0.0
2018-May-31 02:31N 05°38' E 000°00'0 0.0
2018-May-31 02:00N 05°38' E 000°00'0 0.0
2018-May-31 01:30N 05°38' E 000°00'0 0.0
2018-May-31 01:01N 05°38' E 000°00'0 0.0
2018-May-31 00:31N 05°38' E 000°00'0 0.0
2018-May-31 00:00N 05°38' E 000°00'0 0.0
2018-May-30 23:31N 05°38' E 000°00'0 0.0
2018-May-30 23:00N 05°38' E 000°00'0 0.0
2018-May-30 22:31N 05°38' E 000°00'0 0.0
2018-May-30 22:01N 05°38' E 000°00'0 0.0
2018-May-30 21:31N 05°38' E 000°00'0 0.0
2018-May-30 21:01N 05°38' E 000°00'0 0.0
2018-May-30 20:30N 05°38' E 000°00'0 0.0
2018-May-30 20:01N 05°38' E 000°00'0 0.0
2018-May-30 19:31N 05°38' E 000°00'0 0.0
2018-May-30 19:01N 05°38' E 000°00'0 0.0
2018-May-30 18:31N 05°38' E 000°00'0 0.0
2018-May-30 18:01N 05°38' E 000°00'0 0.0
2018-May-30 17:31N 05°38' E 000°00'0 0.0
2018-May-30 17:00N 05°38' E 000°00'0 0.0
2018-May-30 16:31N 05°38' E 000°00'0 0.0
2018-May-30 16:01N 05°38' E 000°00'0 0.0
2018-May-30 15:31N 05°38' E 000°00'0 0.0
2018-May-30 15:01N 05°38' E 000°00'0 0.0
2018-May-30 14:31N 05°38' E 000°00'0 0.0
2018-May-30 14:01N 05°38' E 000°00'0 0.0
2018-May-30 13:30N 05°38' E 000°00'0 0.0
2018-May-30 13:01N 05°38' E 000°00'0 0.0
2018-May-30 12:31N 05°38' E 000°00'0 0.0
2018-May-30 12:00N 05°38' E 000°00'0 0.0
2018-May-30 11:31N 05°38' E 000°00'0 0.0
2018-May-30 11:00N 05°38' E 000°00'0 0.0
2018-May-30 10:30N 05°38' E 000°00'0 0.0
2018-May-30 10:01N 05°38' E 000°00'0 0.0
2018-May-30 09:31N 05°38' E 000°00'0 0.0
2018-May-30 09:01N 05°38' E 000°00'0 0.0
2018-May-30 08:30N 05°38' E 000°00'0 0.0
2018-May-30 08:01N 05°38' E 000°00'0 0.0
2018-May-30 07:31N 05°38' E 000°00'0 0.0
2018-May-30 07:00N 05°38' E 000°00'0 0.0
2018-May-30 06:30N 05°38' E 000°00'0 0.0
2018-May-30 06:01N 05°38' E 000°00'0 0.0
2018-May-30 05:30N 05°38' E 000°00'0 0.0
2018-May-30 05:01N 05°38' E 000°00'0 0.0
2018-May-30 04:31N 05°38' E 000°00'0 0.0
2018-May-30 04:00N 05°38' E 000°00'0 0.0
2018-May-30 03:31N 05°38' E 000°00'0 0.0
2018-May-30 03:01N 05°38' E 000°00'0 0.0
2018-May-30 02:31N 05°38' E 000°00'0 0.0
2018-May-30 02:01N 05°38' E 000°00'0 0.0
2018-May-30 01:31N 05°38' E 000°00'0 0.0
2018-May-30 01:00N 05°38' E 000°00'0 0.0
2018-May-30 00:30N 05°38' E 000°00'1 2.3
2018-May-30 00:01N 05°38' E 000°02'3 6.8
2018-May-29 23:31N 05°37' E 000°05'1 1.5
2018-May-29 23:00N 05°37' E 000°05'1 1.5
2018-May-29 22:31N 05°37' E 000°04'2 4.1
2018-May-29 22:00N 05°38' E 000°02'2 2.9
2018-May-29 21:28N 05°36' E 000°01'4 9.2
2018-May-29 21:00N 05°33' W 000°02'611.9
2018-May-29 20:30N 05°29' W 000°06'612.6
2018-May-29 20:01N 05°24' W 000°10'713.1
2018-May-29 19:31N 05°20' W 000°15'713.0
2018-May-29 19:00N 05°16' W 000°20'  

Dump ship's entire track history